Airfield :
LOGIN :

Register | Disclaimer

   EN    FR    IT 

 










Legend :    VFR   Marginal VFR   IFR   Intensive IFR   Very Intensive IFR
Visi :
Ceiling :
>= 8 km
>= 3000ft
5 to 8 km
1000 to 3000 ft
1500m to 5 km
500 to 1000 ft
800 to 1500m
200 to 500 ft
< 800m
< 200 ft
Symbols :   Thunderstorms  Fog  Heavy snow  Heavy precipitations  Wind > 20 kt
SIGMETs :     Misc.  Thunderstorms  Icing  Turbulence  Mountain Waves  Volcanic Ashes






- Airport Elevation : 257 ft
- IATA code : MAN


EGCC - Manchester

CURRENT METAR :
  • 150350Z AUTO 06005KT 9999 NCD 13/12 Q1016

EXPIRED METARs :
  • 150320Z AUTO 09003KT 9999 NCD 13/12 Q1016 NOSIG
  • 150250Z AUTO VRB02KT 9999 NCD 14/12 Q1016 NOSIG
  • 150220Z AUTO VRB02KT 9999 NCD 14/12 Q1017 NOSIG
  • 150150Z AUTO VRB01KT 9999 NCD 14/12 Q1017 NOSIG
  • 150120Z AUTO 07003KT 9999 NCD 15/12 Q1017 NOSIG

TAF TAF EGCC
Valid from the 15 at 00:00 until the 16 at 06:00 UTC


142255Z 1500/1606 05008KT 9999 FEW045
TEMPO 1500/1512 BKN012
PROB30
TEMPO 1500/1509 8000 BKN008
TEMPO 1518/1606 6000 SHRA
PROB30
TEMPO 1518/1603 3000 +SHRA +TSRA
TEMPO 1600/1606 BKN012
ATIS : +44 161 499 2324



MET'MAP, your aeronautical weather chart ! - Copyright ORBIFLY December 2007 - Disclaimer

ORBIFLY MET'MAP TEAM :

Programming & Development : Alexandra Zaïnal
Concept & original design : Baudouin d'Aumeries
Assistance for programming : Marc-Olivier Méhu
Technical & hardware support : Manuel Goepfert

Contact : metmap@orbifly.com




SOURCES & CREDITS :

   NOAA